sensor_id;sensor_type;location;lat;lon;timestamp;P1;durP1;ratioP1;P2;durP2;ratioP2
44842;SDS011;31884;52.538;13.820;2023-07-16T00:01:54;3.92;;;2.35;;
44842;SDS011;31884;52.538;13.820;2023-07-16T00:04:21;5.18;;;2.70;;
44842;SDS011;31884;52.538;13.820;2023-07-16T00:06:46;3.50;;;2.35;;
44842;SDS011;31884;52.538;13.820;2023-07-16T00:09:12;2.95;;;2.65;;
44842;SDS011;31884;52.538;13.820;2023-07-16T00:11:37;2.63;;;2.42;;
44842;SDS011;31884;52.538;13.820;2023-07-16T00:14:03;3.75;;;2.90;;
44842;SDS011;31884;52.538;13.820;2023-07-16T00:16:29;4.55;;;2.83;;
44842;SDS011;31884;52.538;13.820;2023-07-16T00:18:54;6.43;;;2.78;;
44842;SDS011;31884;52.538;13.820;2023-07-16T00:21:20;2.85;;;2.65;;
44842;SDS011;31884;52.538;13.820;2023-07-16T00:23:45;2.88;;;2.38;;
44842;SDS011;31884;52.538;13.820;2023-07-16T00:26:12;2.67;;;2.45;;
44842;SDS011;31884;52.538;13.820;2023-07-16T00:28:38;4.13;;;2.97;;
44842;SDS011;31884;52.538;13.820;2023-07-16T00:31:03;3.45;;;2.47;;
44842;SDS011;31884;52.538;13.820;2023-07-16T00:33:29;4.60;;;2.75;;
44842;SDS011;31884;52.538;13.820;2023-07-16T00:35:54;3.00;;;2.70;;
44842;SDS011;31884;52.538;13.820;2023-07-16T00:38:20;3.35;;;2.63;;
44842;SDS011;31884;52.538;13.820;2023-07-16T00:40:46;4.10;;;2.50;;
44842;SDS011;31884;52.538;13.820;2023-07-16T00:43:12;5.00;;;3.05;;
44842;SDS011;31884;52.538;13.820;2023-07-16T00:45:38;5.82;;;3.08;;
44842;SDS011;31884;52.538;13.820;2023-07-16T00:48:05;2.85;;;2.45;;
44842;SDS011;31884;52.538;13.820;2023-07-16T00:50:32;2.78;;;2.40;;
44842;SDS011;31884;52.538;13.820;2023-07-16T00:53:00;3.25;;;2.53;;
44842;SDS011;31884;52.538;13.820;2023-07-16T00:55:28;3.10;;;2.40;;
44842;SDS011;31884;52.538;13.820;2023-07-16T00:57:54;3.00;;;2.67;;
44842;SDS011;31884;52.538;13.820;2023-07-16T01:00:25;5.65;;;2.50;;
44842;SDS011;31884;52.538;13.820;2023-07-16T01:02:50;3.67;;;2.67;;
44842;SDS011;31884;52.538;13.820;2023-07-16T01:05:17;2.88;;;2.15;;
44842;SDS011;31884;52.538;13.820;2023-07-16T01:07:43;2.67;;;2.47;;
44842;SDS011;31884;52.538;13.820;2023-07-16T01:10:19;3.40;;;2.90;;
44842;SDS011;31884;52.538;13.820;2023-07-16T01:12:46;3.15;;;2.83;;
44842;SDS011;31884;52.538;13.820;2023-07-16T01:15:12;3.30;;;3.00;;
44842;SDS011;31884;52.538;13.820;2023-07-16T01:17:37;6.68;;;3.50;;
44842;SDS011;31884;52.538;13.820;2023-07-16T01:20:03;3.55;;;3.20;;
44842;SDS011;31884;52.538;13.820;2023-07-16T01:25:08;3.65;;;3.20;;
44842;SDS011;31884;52.538;13.820;2023-07-16T01:30:40;5.32;;;3.47;;
44842;SDS011;31884;52.538;13.820;2023-07-16T01:33:09;4.50;;;3.40;;
44842;SDS011;31884;52.538;13.820;2023-07-16T01:35:37;5.55;;;3.70;;
44842;SDS011;31884;52.538;13.820;2023-07-16T01:38:04;7.20;;;4.35;;
44842;SDS011;31884;52.538;13.820;2023-07-16T01:40:30;6.82;;;3.83;;
44842;SDS011;31884;52.538;13.820;2023-07-16T01:42:55;5.97;;;4.20;;
44842;SDS011;31884;52.538;13.820;2023-07-16T01:45:21;6.45;;;3.60;;
44842;SDS011;31884;52.538;13.820;2023-07-16T01:48:33;4.80;;;3.50;;
44842;SDS011;31884;52.538;13.820;2023-07-16T01:50:49;6.65;;;3.97;;
44842;SDS011;31884;52.538;13.820;2023-07-16T01:53:14;3.95;;;3.55;;
44842;SDS011;31884;52.538;13.820;2023-07-16T01:55:40;4.43;;;3.65;;
44842;SDS011;31884;52.538;13.820;2023-07-16T01:58:05;3.92;;;3.45;;
44842;SDS011;31884;52.538;13.820;2023-07-16T02:00:32;4.32;;;3.78;;
44842;SDS011;31884;52.538;13.820;2023-07-16T02:02:57;4.30;;;3.70;;
44842;SDS011;31884;52.538;13.820;2023-07-16T02:05:23;4.38;;;3.97;;
44842;SDS011;31884;52.538;13.820;2023-07-16T02:07:48;4.93;;;3.92;;
44842;SDS011;31884;52.538;13.820;2023-07-16T02:10:14;5.78;;;3.53;;
44842;SDS011;31884;52.538;13.820;2023-07-16T02:12:39;5.82;;;3.70;;
44842;SDS011;31884;52.538;13.820;2023-07-16T02:15:05;4.38;;;3.40;;
44842;SDS011;31884;52.538;13.820;2023-07-16T02:17:31;4.68;;;3.45;;
44842;SDS011;31884;52.538;13.820;2023-07-16T02:19:57;4.78;;;3.47;;
44842;SDS011;31884;52.538;13.820;2023-07-16T02:22:23;4.43;;;3.35;;
44842;SDS011;31884;52.538;13.820;2023-07-16T02:24:48;4.45;;;4.00;;
44842;SDS011;31884;52.538;13.820;2023-07-16T02:27:14;5.47;;;3.83;;
44842;SDS011;31884;52.538;13.820;2023-07-16T02:29:39;5.35;;;3.45;;
44842;SDS011;31884;52.538;13.820;2023-07-16T02:32:05;4.93;;;3.65;;
44842;SDS011;31884;52.538;13.820;2023-07-16T02:34:30;5.90;;;3.17;;
44842;SDS011;31884;52.538;13.820;2023-07-16T02:36:56;4.72;;;3.67;;
44842;SDS011;31884;52.538;13.820;2023-07-16T02:39:21;4.25;;;3.85;;
44842;SDS011;31884;52.538;13.820;2023-07-16T02:41:48;3.75;;;3.45;;
44842;SDS011;31884;52.538;13.820;2023-07-16T02:44:14;5.47;;;3.53;;
44842;SDS011;31884;52.538;13.820;2023-07-16T02:46:39;5.15;;;3.50;;
44842;SDS011;31884;52.538;13.820;2023-07-16T02:49:07;4.45;;;3.15;;
44842;SDS011;31884;52.538;13.820;2023-07-16T02:51:33;3.50;;;3.00;;
44842;SDS011;31884;52.538;13.820;2023-07-16T02:53:58;5.13;;;3.25;;
44842;SDS011;31884;52.538;13.820;2023-07-16T02:56:23;6.88;;;3.22;;
44842;SDS011;31884;52.538;13.820;2023-07-16T02:58:49;3.50;;;3.00;;
44842;SDS011;31884;52.538;13.820;2023-07-16T03:01:14;4.28;;;2.72;;
44842;SDS011;31884;52.538;13.820;2023-07-16T03:03:40;3.63;;;2.75;;
44842;SDS011;31884;52.538;13.820;2023-07-16T03:06:06;3.60;;;3.08;;
44842;SDS011;31884;52.538;13.820;2023-07-16T03:08:32;3.53;;;2.53;;
44842;SDS011;31884;52.538;13.820;2023-07-16T03:10:59;3.10;;;2.80;;
44842;SDS011;31884;52.538;13.820;2023-07-16T03:13:24;3.47;;;2.75;;
44842;SDS011;31884;52.538;13.820;2023-07-16T03:15:50;3.55;;;2.90;;
44842;SDS011;31884;52.538;13.820;2023-07-16T03:18:17;5.50;;;3.00;;
44842;SDS011;31884;52.538;13.820;2023-07-16T03:20:43;2.72;;;2.45;;
44842;SDS011;31884;52.538;13.820;2023-07-16T03:23:09;5.03;;;3.20;;
44842;SDS011;31884;52.538;13.820;2023-07-16T03:25:35;3.53;;;2.70;;
44842;SDS011;31884;52.538;13.820;2023-07-16T03:28:00;3.90;;;2.60;;
44842;SDS011;31884;52.538;13.820;2023-07-16T03:30:26;3.58;;;2.40;;
44842;SDS011;31884;52.538;13.820;2023-07-16T03:32:52;3.55;;;2.97;;
44842;SDS011;31884;52.538;13.820;2023-07-16T03:35:17;4.68;;;2.38;;
44842;SDS011;31884;52.538;13.820;2023-07-16T03:37:43;4.72;;;2.75;;
44842;SDS011;31884;52.538;13.820;2023-07-16T03:40:15;3.38;;;2.70;;
44842;SDS011;31884;52.538;13.820;2023-07-16T03:42:42;3.13;;;2.70;;
44842;SDS011;31884;52.538;13.820;2023-07-16T03:45:09;2.60;;;2.05;;
44842;SDS011;31884;52.538;13.820;2023-07-16T03:47:35;2.40;;;2.20;;
44842;SDS011;31884;52.538;13.820;2023-07-16T03:50:01;2.38;;;2.17;;
44842;SDS011;31884;52.538;13.820;2023-07-16T03:52:27;2.65;;;2.33;;
44842;SDS011;31884;52.538;13.820;2023-07-16T03:54:53;2.60;;;2.10;;
44842;SDS011;31884;52.538;13.820;2023-07-16T03:57:19;3.42;;;2.38;;
44842;SDS011;31884;52.538;13.820;2023-07-16T03:59:45;2.72;;;2.22;;
44842;SDS011;31884;52.538;13.820;2023-07-16T04:02:10;3.72;;;2.85;;
44842;SDS011;31884;52.538;13.820;2023-07-16T04:04:37;2.08;;;1.88;;
44842;SDS011;31884;52.538;13.820;2023-07-16T04:07:03;2.65;;;2.25;;
44842;SDS011;31884;52.538;13.820;2023-07-16T04:09:28;3.42;;;2.00;;
44842;SDS011;31884;52.538;13.820;2023-07-16T04:11:54;1.98;;;1.77;;
44842;SDS011;31884;52.538;13.820;2023-07-16T04:14:19;1.85;;;1.67;;
44842;SDS011;31884;52.538;13.820;2023-07-16T04:16:45;3.17;;;2.13;;
44842;SDS011;31884;52.538;13.820;2023-07-16T04:19:10;3.22;;;1.88;;
44842;SDS011;31884;52.538;13.820;2023-07-16T04:21:36;2.22;;;2.03;;
44842;SDS011;31884;52.538;13.820;2023-07-16T04:24:02;3.95;;;2.25;;
44842;SDS011;31884;52.538;13.820;2023-07-16T04:26:28;3.60;;;1.95;;
44842;SDS011;31884;52.538;13.820;2023-07-16T04:28:54;2.13;;;1.90;;
44842;SDS011;31884;52.538;13.820;2023-07-16T04:31:19;3.85;;;1.90;;
44842;SDS011;31884;52.538;13.820;2023-07-16T04:33:45;1.88;;;1.73;;
44842;SDS011;31884;52.538;13.820;2023-07-16T04:36:10;1.98;;;1.80;;
44842;SDS011;31884;52.538;13.820;2023-07-16T04:38:36;3.42;;;2.00;;
44842;SDS011;31884;52.538;13.820;2023-07-16T04:41:01;3.90;;;1.98;;
44842;SDS011;31884;52.538;13.820;2023-07-16T04:43:27;1.75;;;1.65;;
44842;SDS011;31884;52.538;13.820;2023-07-16T04:45:53;3.00;;;2.30;;
44842;SDS011;31884;52.538;13.820;2023-07-16T04:48:18;4.45;;;2.10;;
44842;SDS011;31884;52.538;13.820;2023-07-16T04:50:43;2.65;;;2.00;;
44842;SDS011;31884;52.538;13.820;2023-07-16T04:53:09;2.58;;;2.10;;
44842;SDS011;31884;52.538;13.820;2023-07-16T04:55:39;3.88;;;2.33;;
44842;SDS011;31884;52.538;13.820;2023-07-16T04:58:05;2.85;;;2.42;;
44842;SDS011;31884;52.538;13.820;2023-07-16T05:00:35;2.38;;;2.17;;
44842;SDS011;31884;52.538;13.820;2023-07-16T05:03:01;3.70;;;3.05;;
44842;SDS011;31884;52.538;13.820;2023-07-16T05:05:26;3.58;;;2.78;;
44842;SDS011;31884;52.538;13.820;2023-07-16T05:07:52;2.88;;;2.58;;
44842;SDS011;31884;52.538;13.820;2023-07-16T05:10:17;2.97;;;2.70;;
44842;SDS011;31884;52.538;13.820;2023-07-16T05:12:43;3.47;;;2.63;;
44842;SDS011;31884;52.538;13.820;2023-07-16T05:15:08;3.03;;;2.67;;
44842;SDS011;31884;52.538;13.820;2023-07-16T05:17:34;3.65;;;2.35;;
44842;SDS011;31884;52.538;13.820;2023-07-16T05:20:00;2.70;;;2.50;;
44842;SDS011;31884;52.538;13.820;2023-07-16T05:22:25;4.00;;;2.88;;
44842;SDS011;31884;52.538;13.820;2023-07-16T05:24:51;3.30;;;2.80;;
44842;SDS011;31884;52.538;13.820;2023-07-16T05:27:16;2.85;;;2.55;;
44842;SDS011;31884;52.538;13.820;2023-07-16T05:29:42;2.90;;;2.65;;
44842;SDS011;31884;52.538;13.820;2023-07-16T05:32:07;3.03;;;2.40;;
44842;SDS011;31884;52.538;13.820;2023-07-16T05:34:33;4.72;;;2.80;;
44842;SDS011;31884;52.538;13.820;2023-07-16T05:36:58;2.88;;;2.67;;
44842;SDS011;31884;52.538;13.820;2023-07-16T05:39:24;3.25;;;2.95;;
44842;SDS011;31884;52.538;13.820;2023-07-16T05:41:51;3.28;;;2.97;;
44842;SDS011;31884;52.538;13.820;2023-07-16T05:44:17;3.38;;;2.70;;
44842;SDS011;31884;52.538;13.820;2023-07-16T05:46:42;3.40;;;2.20;;
44842;SDS011;31884;52.538;13.820;2023-07-16T05:49:08;3.40;;;3.05;;
44842;SDS011;31884;52.538;13.820;2023-07-16T05:51:33;3.03;;;2.35;;
44842;SDS011;31884;52.538;13.820;2023-07-16T05:53:58;4.00;;;2.58;;
44842;SDS011;31884;52.538;13.820;2023-07-16T05:56:24;2.58;;;2.30;;
44842;SDS011;31884;52.538;13.820;2023-07-16T05:58:50;2.40;;;2.20;;
44842;SDS011;31884;52.538;13.820;2023-07-16T06:01:15;2.00;;;1.77;;
44842;SDS011;31884;52.538;13.820;2023-07-16T06:03:41;2.15;;;2.05;;
44842;SDS011;31884;52.538;13.820;2023-07-16T06:06:09;3.08;;;2.00;;
44842;SDS011;31884;52.538;13.820;2023-07-16T06:08:35;2.40;;;2.20;;
44842;SDS011;31884;52.538;13.820;2023-07-16T06:11:01;2.78;;;2.08;;
44842;SDS011;31884;52.538;13.820;2023-07-16T06:13:26;4.97;;;2.42;;
44842;SDS011;31884;52.538;13.820;2023-07-16T06:15:52;2.72;;;2.15;;
44842;SDS011;31884;52.538;13.820;2023-07-16T06:18:17;2.55;;;1.98;;
44842;SDS011;31884;52.538;13.820;2023-07-16T06:20:44;2.10;;;1.83;;
44842;SDS011;31884;52.538;13.820;2023-07-16T06:23:11;2.75;;;2.05;;
44842;SDS011;31884;52.538;13.820;2023-07-16T06:25:37;2.80;;;1.80;;
44842;SDS011;31884;52.538;13.820;2023-07-16T06:28:05;2.50;;;1.80;;
44842;SDS011;31884;52.538;13.820;2023-07-16T06:30:31;2.10;;;1.80;;
44842;SDS011;31884;52.538;13.820;2023-07-16T06:32:57;3.58;;;2.35;;
44842;SDS011;31884;52.538;13.820;2023-07-16T06:35:23;3.45;;;1.70;;
44842;SDS011;31884;52.538;13.820;2023-07-16T06:37:49;2.03;;;1.90;;
44842;SDS011;31884;52.538;13.820;2023-07-16T06:40:15;2.55;;;1.48;;
44842;SDS011;31884;52.538;13.820;2023-07-16T06:42:41;2.58;;;1.85;;
44842;SDS011;31884;52.538;13.820;2023-07-16T06:45:07;1.83;;;1.40;;
44842;SDS011;31884;52.538;13.820;2023-07-16T06:47:32;1.88;;;1.55;;
44842;SDS011;31884;52.538;13.820;2023-07-16T06:49:58;1.42;;;1.33;;
44842;SDS011;31884;52.538;13.820;2023-07-16T06:52:23;1.45;;;1.27;;
44842;SDS011;31884;52.538;13.820;2023-07-16T06:54:52;3.08;;;1.73;;
44842;SDS011;31884;52.538;13.820;2023-07-16T06:57:19;2.90;;;1.75;;
44842;SDS011;31884;52.538;13.820;2023-07-16T06:59:44;1.35;;;1.20;;
44842;SDS011;31884;52.538;13.820;2023-07-16T07:02:10;2.92;;;1.40;;
44842;SDS011;31884;52.538;13.820;2023-07-16T07:04:37;1.85;;;1.35;;
44842;SDS011;31884;52.538;13.820;2023-07-16T07:07:02;1.52;;;1.30;;
44842;SDS011;31884;52.538;13.820;2023-07-16T07:09:28;1.58;;;1.33;;
44842;SDS011;31884;52.538;13.820;2023-07-16T07:11:53;2.65;;;1.67;;
44842;SDS011;31884;52.538;13.820;2023-07-16T07:14:19;1.30;;;1.20;;
44842;SDS011;31884;52.538;13.820;2023-07-16T07:16:44;1.63;;;1.30;;
44842;SDS011;31884;52.538;13.820;2023-07-16T07:19:10;2.03;;;1.45;;
44842;SDS011;31884;52.538;13.820;2023-07-16T07:21:36;1.95;;;1.50;;
44842;SDS011;31884;52.538;13.820;2023-07-16T07:24:01;1.50;;;1.40;;
44842;SDS011;31884;52.538;13.820;2023-07-16T07:26:27;2.53;;;1.40;;
44842;SDS011;31884;52.538;13.820;2023-07-16T07:28:52;2.25;;;1.20;;
44842;SDS011;31884;52.538;13.820;2023-07-16T07:31:18;2.03;;;1.38;;
44842;SDS011;31884;52.538;13.820;2023-07-16T07:33:43;1.75;;;1.30;;
44842;SDS011;31884;52.538;13.820;2023-07-16T07:36:09;2.30;;;1.30;;
44842;SDS011;31884;52.538;13.820;2023-07-16T07:38:35;2.25;;;1.23;;
44842;SDS011;31884;52.538;13.820;2023-07-16T07:41:01;3.13;;;1.60;;
44842;SDS011;31884;52.538;13.820;2023-07-16T07:43:27;1.73;;;1.50;;
44842;SDS011;31884;52.538;13.820;2023-07-16T07:45:52;1.85;;;1.52;;
44842;SDS011;31884;52.538;13.820;2023-07-16T07:48:18;1.50;;;1.30;;
44842;SDS011;31884;52.538;13.820;2023-07-16T07:50:43;4.82;;;1.70;;
44842;SDS011;31884;52.538;13.820;2023-07-16T07:53:11;2.42;;;1.88;;
44842;SDS011;31884;52.538;13.820;2023-07-16T07:55:37;2.63;;;1.42;;
44842;SDS011;31884;52.538;13.820;2023-07-16T07:58:02;2.08;;;1.77;;
44842;SDS011;31884;52.538;13.820;2023-07-16T08:00:28;1.73;;;1.45;;
44842;SDS011;31884;52.538;13.820;2023-07-16T08:02:53;1.95;;;1.48;;
44842;SDS011;31884;52.538;13.820;2023-07-16T08:05:20;1.98;;;1.50;;
44842;SDS011;31884;52.538;13.820;2023-07-16T08:07:46;1.80;;;1.70;;
44842;SDS011;31884;52.538;13.820;2023-07-16T08:10:12;2.05;;;1.70;;
44842;SDS011;31884;52.538;13.820;2023-07-16T08:12:37;2.00;;;1.80;;
44842;SDS011;31884;52.538;13.820;2023-07-16T08:15:03;3.05;;;1.45;;
44842;SDS011;31884;52.538;13.820;2023-07-16T08:17:29;1.67;;;1.48;;
44842;SDS011;31884;52.538;13.820;2023-07-16T08:19:55;1.83;;;1.42;;
44842;SDS011;31884;52.538;13.820;2023-07-16T08:22:21;9.60;;;1.70;;
44842;SDS011;31884;52.538;13.820;2023-07-16T08:24:48;1.70;;;1.42;;
44842;SDS011;31884;52.538;13.820;2023-07-16T08:27:15;1.27;;;1.17;;
44842;SDS011;31884;52.538;13.820;2023-07-16T08:29:41;1.83;;;1.40;;
44842;SDS011;31884;52.538;13.820;2023-07-16T08:32:06;1.40;;;1.30;;
44842;SDS011;31884;52.538;13.820;2023-07-16T08:34:32;1.55;;;1.38;;
44842;SDS011;31884;52.538;13.820;2023-07-16T08:36:58;2.42;;;1.30;;
44842;SDS011;31884;52.538;13.820;2023-07-16T08:39:23;1.55;;;1.38;;
44842;SDS011;31884;52.538;13.820;2023-07-16T08:41:49;1.25;;;1.20;;
44842;SDS011;31884;52.538;13.820;2023-07-16T08:44:14;1.67;;;1.30;;
44842;SDS011;31884;52.538;13.820;2023-07-16T08:46:40;1.90;;;1.75;;
44842;SDS011;31884;52.538;13.820;2023-07-16T08:49:07;1.75;;;1.35;;
44842;SDS011;31884;52.538;13.820;2023-07-16T08:51:33;2.47;;;1.48;;
44842;SDS011;31884;52.538;13.820;2023-07-16T08:53:59;1.67;;;1.30;;
44842;SDS011;31884;52.538;13.820;2023-07-16T08:56:25;1.50;;;1.40;;
44842;SDS011;31884;52.538;13.820;2023-07-16T08:58:54;1.88;;;1.40;;
44842;SDS011;31884;52.538;13.820;2023-07-16T09:01:23;1.48;;;1.38;;
44842;SDS011;31884;52.538;13.820;2023-07-16T09:03:49;3.25;;;1.30;;
44842;SDS011;31884;52.538;13.820;2023-07-16T09:06:14;1.75;;;1.55;;
44842;SDS011;31884;52.538;13.820;2023-07-16T09:08:41;1.45;;;1.35;;
44842;SDS011;31884;52.538;13.820;2023-07-16T09:11:10;2.22;;;1.50;;
44842;SDS011;31884;52.538;13.820;2023-07-16T09:13:43;3.38;;;1.88;;
44842;SDS011;31884;52.538;13.820;2023-07-16T09:16:09;1.52;;;1.42;;
44842;SDS011;31884;52.538;13.820;2023-07-16T09:18:34;1.55;;;1.30;;
44842;SDS011;31884;52.538;13.820;2023-07-16T09:21:00;2.92;;;1.20;;
44842;SDS011;31884;52.538;13.820;2023-07-16T09:23:31;2.17;;;1.45;;
44842;SDS011;31884;52.538;13.820;2023-07-16T09:25:57;1.75;;;1.35;;
44842;SDS011;31884;52.538;13.820;2023-07-16T09:28:22;1.90;;;1.25;;
44842;SDS011;31884;52.538;13.820;2023-07-16T09:30:48;1.75;;;1.38;;
44842;SDS011;31884;52.538;13.820;2023-07-16T09:33:19;1.90;;;1.35;;
44842;SDS011;31884;52.538;13.820;2023-07-16T09:35:47;1.77;;;1.30;;
44842;SDS011;31884;52.538;13.820;2023-07-16T09:38:14;2.08;;;1.38;;
44842;SDS011;31884;52.538;13.820;2023-07-16T09:40:41;3.03;;;1.40;;
44842;SDS011;31884;52.538;13.820;2023-07-16T09:43:07;1.20;;;1.10;;
44842;SDS011;31884;52.538;13.820;2023-07-16T09:45:34;2.28;;;1.45;;
44842;SDS011;31884;52.538;13.820;2023-07-16T09:48:00;2.30;;;1.50;;
44842;SDS011;31884;52.538;13.820;2023-07-16T09:50:27;2.47;;;1.30;;
44842;SDS011;31884;52.538;13.820;2023-07-16T09:52:55;2.20;;;1.10;;
44842;SDS011;31884;52.538;13.820;2023-07-16T09:55:22;1.92;;;1.40;;
44842;SDS011;31884;52.538;13.820;2023-07-16T09:57:48;1.77;;;1.48;;
44842;SDS011;31884;52.538;13.820;2023-07-16T10:00:16;2.05;;;1.27;;
44842;SDS011;31884;52.538;13.820;2023-07-16T10:02:42;2.85;;;1.40;;
44842;SDS011;31884;52.538;13.820;2023-07-16T10:05:19;1.95;;;1.30;;
44842;SDS011;31884;52.538;13.820;2023-07-16T10:07:53;1.25;;;1.15;;
44842;SDS011;31884;52.538;13.820;2023-07-16T10:10:25;1.70;;;1.25;;
44842;SDS011;31884;52.538;13.820;2023-07-16T10:13:13;2.28;;;1.58;;
44842;SDS011;31884;52.538;13.820;2023-07-16T10:15:39;2.72;;;1.50;;
44842;SDS011;31884;52.538;13.820;2023-07-16T10:18:22;1.58;;;1.38;;
44842;SDS011;31884;52.538;13.820;2023-07-16T10:23:37;3.47;;;1.48;;
44842;SDS011;31884;52.538;13.820;2023-07-16T10:26:05;2.70;;;1.60;;
44842;SDS011;31884;52.538;13.820;2023-07-16T10:28:32;2.22;;;1.55;;
44842;SDS011;31884;52.538;13.820;2023-07-16T10:31:01;3.30;;;1.60;;
44842;SDS011;31884;52.538;13.820;2023-07-16T10:33:27;1.52;;;1.30;;
44842;SDS011;31884;52.538;13.820;2023-07-16T10:35:52;2.75;;;1.52;;
44842;SDS011;31884;52.538;13.820;2023-07-16T10:38:18;2.30;;;1.85;;
44842;SDS011;31884;52.538;13.820;2023-07-16T10:40:45;2.80;;;1.60;;
44842;SDS011;31884;52.538;13.820;2023-07-16T10:43:11;3.38;;;1.48;;
44842;SDS011;31884;52.538;13.820;2023-07-16T10:45:37;3.90;;;1.50;;
44842;SDS011;31884;52.538;13.820;2023-07-16T10:48:03;1.63;;;1.40;;
44842;SDS011;31884;52.538;13.820;2023-07-16T10:50:31;2.60;;;1.67;;
44842;SDS011;31884;52.538;13.820;2023-07-16T10:52:58;2.35;;;1.75;;
44842;SDS011;31884;52.538;13.820;2023-07-16T10:55:25;1.70;;;1.48;;
44842;SDS011;31884;52.538;13.820;2023-07-16T10:57:52;2.80;;;1.50;;
44842;SDS011;31884;52.538;13.820;2023-07-16T11:00:19;2.60;;;1.73;;
44842;SDS011;31884;52.538;13.820;2023-07-16T11:02:46;2.20;;;1.50;;
44842;SDS011;31884;52.538;13.820;2023-07-16T11:05:12;2.25;;;1.50;;
44842;SDS011;31884;52.538;13.820;2023-07-16T11:07:42;2.67;;;1.80;;
44842;SDS011;31884;52.538;13.820;2023-07-16T11:10:12;1.45;;;1.35;;
44842;SDS011;31884;52.538;13.820;2023-07-16T11:12:41;1.67;;;1.20;;
44842;SDS011;31884;52.538;13.820;2023-07-16T11:15:07;2.63;;;1.40;;
44842;SDS011;31884;52.538;13.820;2023-07-16T11:17:33;1.75;;;1.40;;
44842;SDS011;31884;52.538;13.820;2023-07-16T11:19:59;2.45;;;1.75;;
44842;SDS011;31884;52.538;13.820;2023-07-16T11:22:25;2.67;;;1.70;;
44842;SDS011;31884;52.538;13.820;2023-07-16T11:24:51;1.90;;;1.50;;
44842;SDS011;31884;52.538;13.820;2023-07-16T11:29:49;3.35;;;1.88;;
44842;SDS011;31884;52.538;13.820;2023-07-16T11:35:10;2.55;;;1.98;;
44842;SDS011;31884;52.538;13.820;2023-07-16T11:37:42;2.25;;;1.60;;
44842;SDS011;31884;52.538;13.820;2023-07-16T11:40:09;2.65;;;1.80;;
44842;SDS011;31884;52.538;13.820;2023-07-16T11:42:40;2.35;;;2.15;;
44842;SDS011;31884;52.538;13.820;2023-07-16T11:47:46;3.28;;;2.05;;
44842;SDS011;31884;52.538;13.820;2023-07-16T11:50:12;2.25;;;1.63;;
44842;SDS011;31884;52.538;13.820;2023-07-16T11:52:39;1.75;;;1.63;;
44842;SDS011;31884;52.538;13.820;2023-07-16T11:55:05;2.53;;;1.65;;
44842;SDS011;31884;52.538;13.820;2023-07-16T11:57:31;4.32;;;1.85;;
44842;SDS011;31884;52.538;13.820;2023-07-16T11:59:56;3.00;;;1.92;;
44842;SDS011;31884;52.538;13.820;2023-07-16T12:02:22;3.72;;;2.45;;
44842;SDS011;31884;52.538;13.820;2023-07-16T12:04:50;3.92;;;2.08;;
44842;SDS011;31884;52.538;13.820;2023-07-16T12:07:19;2.20;;;1.75;;
44842;SDS011;31884;52.538;13.820;2023-07-16T12:10:00;3.40;;;1.95;;
44842;SDS011;31884;52.538;13.820;2023-07-16T12:12:28;2.10;;;1.88;;
44842;SDS011;31884;52.538;13.820;2023-07-16T12:14:54;3.00;;;1.60;;
44842;SDS011;31884;52.538;13.820;2023-07-16T12:17:19;3.03;;;1.73;;
44842;SDS011;31884;52.538;13.820;2023-07-16T12:19:45;2.05;;;1.70;;
44842;SDS011;31884;52.538;13.820;2023-07-16T12:22:10;3.08;;;1.83;;
44842;SDS011;31884;52.538;13.820;2023-07-16T12:24:36;2.15;;;1.80;;
44842;SDS011;31884;52.538;13.820;2023-07-16T12:27:02;4.93;;;1.60;;
44842;SDS011;31884;52.538;13.820;2023-07-16T12:29:28;1.95;;;1.60;;
44842;SDS011;31884;52.538;13.820;2023-07-16T12:31:53;2.35;;;1.75;;
44842;SDS011;31884;52.538;13.820;2023-07-16T12:34:19;3.55;;;1.75;;
44842;SDS011;31884;52.538;13.820;2023-07-16T12:36:44;2.83;;;1.70;;
44842;SDS011;31884;52.538;13.820;2023-07-16T12:39:10;4.30;;;1.90;;
44842;SDS011;31884;52.538;13.820;2023-07-16T12:41:35;3.38;;;1.73;;
44842;SDS011;31884;52.538;13.820;2023-07-16T12:44:01;2.78;;;1.80;;
44842;SDS011;31884;52.538;13.820;2023-07-16T12:46:26;2.42;;;1.50;;
44842;SDS011;31884;52.538;13.820;2023-07-16T12:48:52;3.28;;;1.73;;
44842;SDS011;31884;52.538;13.820;2023-07-16T12:51:17;2.28;;;1.98;;
44842;SDS011;31884;52.538;13.820;2023-07-16T12:53:43;2.95;;;1.20;;
44842;SDS011;31884;52.538;13.820;2023-07-16T12:56:09;2.50;;;1.70;;
44842;SDS011;31884;52.538;13.820;2023-07-16T12:58:34;4.68;;;2.25;;
44842;SDS011;31884;52.538;13.820;2023-07-16T13:01:00;5.03;;;1.90;;
44842;SDS011;31884;52.538;13.820;2023-07-16T13:03:26;2.80;;;2.03;;
44842;SDS011;31884;52.538;13.820;2023-07-16T13:05:52;1.85;;;1.30;;
44842;SDS011;31884;52.538;13.820;2023-07-16T13:08:17;1.95;;;1.45;;
44842;SDS011;31884;52.538;13.820;2023-07-16T13:10:43;3.10;;;1.85;;
44842;SDS011;31884;52.538;13.820;2023-07-16T13:13:09;2.95;;;1.83;;
44842;SDS011;31884;52.538;13.820;2023-07-16T13:15:34;3.15;;;1.98;;
44842;SDS011;31884;52.538;13.820;2023-07-16T13:18:00;4.53;;;2.20;;
44842;SDS011;31884;52.538;13.820;2023-07-16T13:20:26;2.70;;;1.80;;
44842;SDS011;31884;52.538;13.820;2023-07-16T13:22:52;3.67;;;2.28;;
44842;SDS011;31884;52.538;13.820;2023-07-16T13:25:17;5.05;;;1.70;;
44842;SDS011;31884;52.538;13.820;2023-07-16T13:27:43;2.05;;;1.67;;
44842;SDS011;31884;52.538;13.820;2023-07-16T13:30:09;3.38;;;1.70;;
44842;SDS011;31884;52.538;13.820;2023-07-16T13:32:34;2.70;;;1.40;;
44842;SDS011;31884;52.538;13.820;2023-07-16T13:35:00;2.78;;;1.60;;
44842;SDS011;31884;52.538;13.820;2023-07-16T13:37:25;3.22;;;1.65;;
44842;SDS011;31884;52.538;13.820;2023-07-16T13:39:51;2.70;;;1.48;;
44842;SDS011;31884;52.538;13.820;2023-07-16T13:42:16;2.95;;;1.70;;
44842;SDS011;31884;52.538;13.820;2023-07-16T13:44:42;2.40;;;1.50;;
44842;SDS011;31884;52.538;13.820;2023-07-16T13:47:08;4.38;;;2.00;;
44842;SDS011;31884;52.538;13.820;2023-07-16T13:49:33;1.75;;;1.50;;
44842;SDS011;31884;52.538;13.820;2023-07-16T13:51:59;3.08;;;1.88;;
44842;SDS011;31884;52.538;13.820;2023-07-16T13:54:24;1.75;;;1.38;;
44842;SDS011;31884;52.538;13.820;2023-07-16T13:56:50;4.47;;;1.70;;
44842;SDS011;31884;52.538;13.820;2023-07-16T13:59:15;2.80;;;1.70;;
44842;SDS011;31884;52.538;13.820;2023-07-16T14:01:41;2.50;;;1.50;;
44842;SDS011;31884;52.538;13.820;2023-07-16T14:04:07;4.18;;;1.70;;
44842;SDS011;31884;52.538;13.820;2023-07-16T14:06:33;1.95;;;1.60;;
44842;SDS011;31884;52.538;13.820;2023-07-16T14:08:59;3.03;;;1.90;;
44842;SDS011;31884;52.538;13.820;2023-07-16T14:11:25;2.22;;;1.45;;
44842;SDS011;31884;52.538;13.820;2023-07-16T14:13:50;3.10;;;1.75;;
44842;SDS011;31884;52.538;13.820;2023-07-16T14:16:17;2.88;;;1.70;;
44842;SDS011;31884;52.538;13.820;2023-07-16T14:18:43;2.30;;;1.70;;
44842;SDS011;31884;52.538;13.820;2023-07-16T14:21:08;2.38;;;1.38;;
44842;SDS011;31884;52.538;13.820;2023-07-16T14:23:35;4.57;;;1.80;;
44842;SDS011;31884;52.538;13.820;2023-07-16T14:26:00;4.30;;;1.65;;
44842;SDS011;31884;52.538;13.820;2023-07-16T14:28:28;3.45;;;1.67;;
44842;SDS011;31884;52.538;13.820;2023-07-16T14:30:54;5.53;;;1.75;;
44842;SDS011;31884;52.538;13.820;2023-07-16T14:33:20;2.50;;;1.65;;
44842;SDS011;31884;52.538;13.820;2023-07-16T14:35:45;1.95;;;1.60;;
44842;SDS011;31884;52.538;13.820;2023-07-16T14:38:11;4.07;;;1.90;;
44842;SDS011;31884;52.538;13.820;2023-07-16T14:40:36;6.55;;;1.85;;
44842;SDS011;31884;52.538;13.820;2023-07-16T14:43:04;3.15;;;1.77;;
44842;SDS011;31884;52.538;13.820;2023-07-16T14:45:31;1.73;;;1.40;;